createdAt,value
2018-12-15T00:02:18.809Z,1.00
2018-12-15T00:04:46.960Z,1.00
2018-12-15T00:07:15.146Z,1.00
2018-12-15T00:09:43.277Z,0.90
2018-12-15T00:12:11.464Z,0.90
2018-12-15T00:14:40.107Z,0.90
2018-12-15T00:17:08.222Z,1.00
2018-12-15T00:19:36.417Z,1.00
2018-12-15T00:22:04.772Z,1.00
2018-12-15T00:24:32.931Z,1.00
2018-12-15T00:27:01.249Z,1.00
2018-12-15T00:29:29.364Z,1.00
2018-12-15T00:31:57.460Z,1.00
2018-12-15T00:34:25.870Z,1.00
2018-12-15T00:36:54.005Z,0.90
2018-12-15T00:39:22.194Z,0.90
2018-12-15T00:41:50.698Z,0.90
2018-12-15T00:44:18.782Z,0.90
2018-12-15T00:46:47.148Z,0.90
2018-12-15T00:49:15.745Z,0.90
2018-12-15T00:51:43.880Z,0.90
2018-12-15T00:54:12.522Z,0.90
2018-12-15T00:56:40.677Z,0.90
2018-12-15T00:59:08.867Z,0.90
2018-12-15T01:01:37.025Z,1.00
2018-12-15T01:04:05.394Z,1.00
2018-12-15T01:06:33.542Z,1.00
2018-12-15T01:09:01.687Z,1.00
2018-12-15T01:11:29.869Z,1.00
2018-12-15T01:13:57.997Z,1.00
2018-12-15T01:16:26.157Z,1.00
2018-12-15T01:18:54.243Z,1.00
2018-12-15T01:21:22.322Z,1.00
2018-12-15T01:23:50.505Z,1.00
2018-12-15T01:26:18.741Z,1.00
2018-12-15T01:28:46.921Z,1.00
2018-12-15T01:31:15.281Z,0.90
2018-12-15T01:33:43.570Z,0.90
2018-12-15T01:36:11.793Z,0.90
2018-12-15T01:38:40.143Z,0.90
2018-12-15T01:41:08.443Z,0.80
2018-12-15T01:43:36.645Z,0.80
2018-12-15T01:46:05.881Z,0.80
2018-12-15T01:48:34.619Z,0.90
2018-12-15T01:51:02.877Z,0.90
2018-12-15T01:53:31.129Z,0.90
2018-12-15T01:55:59.690Z,0.90
2018-12-15T01:58:27.881Z,0.90
2018-12-15T02:00:56.035Z,0.90
2018-12-15T02:03:24.254Z,0.90
2018-12-15T02:05:52.402Z,1.00
2018-12-15T02:08:20.566Z,1.00
2018-12-15T02:10:48.943Z,1.00
2018-12-15T02:13:17.030Z,0.90
2018-12-15T02:15:45.213Z,0.90
2018-12-15T02:18:13.877Z,0.90
2018-12-15T02:20:42.066Z,0.80
2018-12-15T02:23:10.191Z,0.80
2018-12-15T02:25:38.491Z,0.90
2018-12-15T02:28:06.626Z,0.90
2018-12-15T02:30:34.796Z,0.80
2018-12-15T02:33:02.935Z,0.80
2018-12-15T02:35:31.105Z,0.90
2018-12-15T02:37:59.245Z,0.90
2018-12-15T02:40:27.419Z,0.90
2018-12-15T02:42:55.521Z,0.80
2018-12-15T02:45:23.607Z,0.80
2018-12-15T02:47:52.052Z,0.80
2018-12-15T02:50:20.367Z,0.90
2018-12-15T02:52:48.483Z,0.90
2018-12-15T02:55:16.881Z,0.90
2018-12-15T02:57:45.045Z,1.00
2018-12-15T03:00:13.188Z,1.00
2018-12-15T03:02:41.380Z,0.90
2018-12-15T03:05:09.493Z,0.90
2018-12-15T03:07:37.636Z,1.00
2018-12-15T03:10:06.263Z,1.00
2018-12-15T03:12:34.350Z,1.00
2018-12-15T03:15:02.522Z,0.90
2018-12-15T03:17:30.601Z,0.90
2018-12-15T03:20:01.241Z,1.00
2018-12-15T03:22:29.478Z,1.00
2018-12-15T03:24:57.598Z,1.00
2018-12-15T03:27:25.730Z,1.00
2018-12-15T03:29:54.221Z,1.00
2018-12-15T03:32:22.355Z,1.00
2018-12-15T03:34:50.487Z,1.00
2018-12-15T03:37:18.645Z,1.00
2018-12-15T03:39:46.775Z,1.00
2018-12-15T03:42:14.891Z,1.00
2018-12-15T03:44:43.317Z,1.00
2018-12-15T03:47:11.436Z,1.10
2018-12-15T03:49:39.602Z,1.10
2018-12-15T03:52:08.257Z,1.10
2018-12-15T03:54:36.406Z,1.10
2018-12-15T03:57:04.529Z,1.10
2018-12-15T03:59:32.932Z,1.10
2018-12-15T04:02:01.295Z,1.10
2018-12-15T04:04:30.550Z,1.10
2018-12-15T04:06:59.134Z,1.10
2018-12-15T04:09:27.252Z,1.10
2018-12-15T04:11:55.378Z,1.10
2018-12-15T04:14:23.678Z,1.10
2018-12-15T04:16:51.855Z,1.10
2018-12-15T04:19:20.024Z,1.20
2018-12-15T04:21:48.294Z,1.20
2018-12-15T04:24:17.244Z,1.10
2018-12-15T04:26:45.295Z,1.20
2018-12-15T04:29:13.657Z,1.20
2018-12-15T04:31:41.842Z,1.20
2018-12-15T04:34:10.103Z,1.20
2018-12-15T04:36:38.451Z,1.20
2018-12-15T04:39:06.541Z,1.20
2018-12-15T04:41:34.767Z,1.20
2018-12-15T04:44:04.303Z,1.20
2018-12-15T04:46:32.443Z,1.30
2018-12-15T04:49:00.601Z,1.20
2018-12-15T04:51:28.717Z,1.30
2018-12-15T04:53:56.977Z,1.30
2018-12-15T04:56:25.077Z,1.30
2018-12-15T04:58:53.249Z,1.20
2018-12-15T05:01:21.395Z,1.20
2018-12-15T05:03:49.701Z,1.20
2018-12-15T05:06:18.077Z,1.30
2018-12-15T05:08:46.209Z,1.30
2018-12-15T05:11:14.518Z,1.20
2018-12-15T05:13:42.838Z,1.20
2018-12-15T05:16:12.045Z,1.20
2018-12-15T05:18:40.369Z,1.20
2018-12-15T05:21:08.500Z,1.20
2018-12-15T05:23:36.759Z,1.20
2018-12-15T05:26:05.194Z,1.20
2018-12-15T05:28:33.277Z,1.20
2018-12-15T05:31:01.381Z,1.20
2018-12-15T05:33:29.521Z,1.20
2018-12-15T05:35:57.666Z,1.10
2018-12-15T05:38:26.001Z,1.10
2018-12-15T05:40:54.375Z,1.10
2018-12-15T05:43:22.565Z,1.10
2018-12-15T05:45:50.697Z,1.20
2018-12-15T05:48:24.958Z,1.20
2018-12-15T05:50:49.026Z,1.30
2018-12-15T05:53:17.142Z,1.20
2018-12-15T05:55:45.509Z,1.20
2018-12-15T05:58:13.589Z,1.20
2018-12-15T06:00:42.265Z,1.20
2018-12-15T06:03:10.397Z,1.20
2018-12-15T06:05:38.530Z,1.20
2018-12-15T06:08:06.812Z,1.20
2018-12-15T06:10:34.951Z,1.10
2018-12-15T06:13:03.053Z,1.20
2018-12-15T06:15:31.645Z,1.20
2018-12-15T06:17:59.772Z,1.30
2018-12-15T06:20:27.884Z,1.20
2018-12-15T06:22:56.177Z,1.20
2018-12-15T06:25:24.322Z,1.20
2018-12-15T06:27:52.447Z,1.10
2018-12-15T06:30:22.129Z,1.10
2018-12-15T06:32:50.349Z,1.00
2018-12-15T06:35:18.528Z,1.10
2018-12-15T06:37:46.769Z,1.10
2018-12-15T06:40:14.880Z,1.20
2018-12-15T06:42:42.984Z,1.20
2018-12-15T06:45:11.093Z,1.20
2018-12-15T06:47:39.293Z,1.20
2018-12-15T06:50:07.739Z,1.30
2018-12-15T06:52:35.760Z,1.30
2018-12-15T06:55:04.133Z,1.40
2018-12-15T06:57:32.576Z,1.40
2018-12-15T07:00:00.957Z,1.50
2018-12-15T07:02:29.062Z,1.40
2018-12-15T07:04:57.224Z,1.30
2018-12-15T07:07:25.310Z,1.30
2018-12-15T07:09:53.471Z,1.20
2018-12-15T07:12:21.781Z,1.20
2018-12-15T07:14:49.857Z,1.20
2018-12-15T07:17:17.972Z,1.20
2018-12-15T07:19:46.114Z,1.20
2018-12-15T07:22:14.217Z,1.20
2018-12-15T07:24:42.353Z,1.20
2018-12-15T07:27:11.024Z,1.10
2018-12-15T07:29:39.188Z,1.20
2018-12-15T07:32:07.301Z,1.20
2018-12-15T07:34:35.493Z,1.20
2018-12-15T07:37:03.760Z,1.20
2018-12-15T07:39:32.031Z,1.30
2018-12-15T07:42:00.371Z,1.30
2018-12-15T07:44:28.648Z,1.30
2018-12-15T07:46:56.929Z,1.30
2018-12-15T07:49:25.189Z,1.20
2018-12-15T07:51:53.458Z,1.40
2018-12-15T07:54:21.597Z,1.40
2018-12-15T07:56:49.762Z,1.40
2018-12-15T07:59:18.096Z,1.50
2018-12-15T08:01:46.244Z,1.40
2018-12-15T08:04:14.551Z,1.40
2018-12-15T08:06:42.662Z,1.40
2018-12-15T08:09:10.777Z,1.40
2018-12-15T08:11:44.787Z,1.40
2018-12-15T08:14:13.572Z,1.40
2018-12-15T08:16:41.818Z,1.40
2018-12-15T08:19:10.238Z,1.30
2018-12-15T08:21:38.534Z,1.40
2018-12-15T08:24:06.685Z,1.40
2018-12-15T08:26:35.012Z,1.50
2018-12-15T08:29:03.292Z,1.50
2018-12-15T08:31:31.520Z,1.50
2018-12-15T08:33:59.703Z,1.60
2018-12-15T08:36:27.914Z,1.60
2018-12-15T08:38:55.996Z,1.60
2018-12-15T08:41:24.188Z,1.60
2018-12-15T08:43:52.291Z,1.70
2018-12-15T08:46:20.489Z,1.70
2018-12-15T08:48:48.772Z,1.70
2018-12-15T08:51:17.329Z,1.60
2018-12-15T08:53:46.046Z,1.60
2018-12-15T08:56:14.169Z,1.60
2018-12-15T08:58:42.290Z,1.60
2018-12-15T09:01:10.586Z,1.60
2018-12-15T09:03:38.651Z,1.60
2018-12-15T09:06:06.756Z,1.70
2018-12-15T09:08:35.305Z,1.90
2018-12-15T09:11:03.409Z,1.90
2018-12-15T09:13:31.587Z,1.90
2018-12-15T09:15:59.685Z,1.80
2018-12-15T09:18:27.817Z,1.80
2018-12-15T09:20:55.992Z,1.90
2018-12-15T09:23:24.441Z,1.80
2018-12-15T09:25:52.621Z,1.70
2018-12-15T09:28:21.581Z,1.60
2018-12-15T09:30:50.052Z,1.70
2018-12-15T09:33:18.705Z,1.70
2018-12-15T09:35:47.459Z,1.70
2018-12-15T09:38:15.708Z,1.70
2018-12-15T09:40:44.165Z,1.80
2018-12-15T09:43:12.457Z,2.00
2018-12-15T09:45:40.734Z,2.00
2018-12-15T09:48:08.867Z,2.00
2018-12-15T09:50:36.989Z,2.00
2018-12-15T09:53:05.669Z,2.00
2018-12-15T09:55:33.788Z,2.10
2018-12-15T09:58:01.987Z,2.10
2018-12-15T10:00:31.262Z,2.10
2018-12-15T10:02:59.751Z,2.10
2018-12-15T10:05:29.962Z,2.00
2018-12-15T10:07:58.637Z,2.10
2018-12-15T10:10:26.797Z,2.10
2018-12-15T10:12:55.049Z,2.10
2018-12-15T10:15:23.146Z,2.10
2018-12-15T10:17:51.328Z,2.00
2018-12-15T10:20:19.666Z,1.90
2018-12-15T10:22:47.764Z,1.90
2018-12-15T10:25:16.018Z,2.00
2018-12-15T10:27:44.380Z,2.00
2018-12-15T10:30:17.976Z,1.90
2018-12-15T10:32:52.656Z,1.80
2018-12-15T10:35:21.209Z,1.90
2018-12-15T10:37:49.336Z,1.90
2018-12-15T10:40:17.655Z,1.90
2018-12-15T10:42:45.853Z,1.90
2018-12-15T10:45:13.962Z,1.90
2018-12-15T10:47:42.175Z,1.90
2018-12-15T10:50:11.273Z,2.00
2018-12-15T10:52:39.369Z,2.00
2018-12-15T10:55:09.233Z,2.00
2018-12-15T10:57:37.436Z,2.00
2018-12-15T11:00:13.133Z,2.00
2018-12-15T11:02:41.285Z,2.00
2018-12-15T11:05:09.660Z,2.10
2018-12-15T11:07:37.896Z,2.20
2018-12-15T11:10:06.005Z,2.30
2018-12-15T11:12:34.120Z,2.40
2018-12-15T11:15:02.745Z,2.30
2018-12-15T11:17:30.901Z,2.20
2018-12-15T11:19:59.070Z,2.10
2018-12-15T11:22:27.196Z,2.10
2018-12-15T11:24:55.351Z,2.00
2018-12-15T11:27:23.486Z,1.80
2018-12-15T11:29:51.769Z,1.80
2018-12-15T11:32:19.880Z,1.80
2018-12-15T11:34:47.985Z,1.80
2018-12-15T11:37:16.120Z,1.80
2018-12-15T11:39:44.228Z,1.90
2018-12-15T11:42:12.398Z,2.00
2018-12-15T11:44:41.042Z,2.00
2018-12-15T11:47:09.170Z,2.00
2018-12-15T11:49:43.476Z,2.00
2018-12-15T11:52:07.440Z,2.20
2018-12-15T11:54:35.764Z,2.40
2018-12-15T11:57:04.069Z,2.40
2018-12-15T11:59:32.548Z,2.30
2018-12-15T12:02:00.934Z,2.30
2018-12-15T12:04:29.048Z,2.20
2018-12-15T12:06:57.477Z,2.20
2018-12-15T12:09:25.596Z,2.20
2018-12-15T12:11:53.833Z,2.20
2018-12-15T12:14:21.961Z,2.10
2018-12-15T12:16:50.120Z,2.00
2018-12-15T12:19:18.233Z,2.10
2018-12-15T12:21:46.593Z,2.10
2018-12-15T12:24:14.704Z,2.20
2018-12-15T12:26:42.943Z,2.30
2018-12-15T12:29:11.213Z,2.30
2018-12-15T12:31:39.254Z,2.20
2018-12-15T12:34:07.376Z,2.30
2018-12-15T12:36:35.545Z,2.30
2018-12-15T12:39:05.033Z,2.40
2018-12-15T12:41:33.186Z,2.50
2018-12-15T12:44:01.292Z,2.40
2018-12-15T12:46:29.533Z,2.40
2018-12-15T12:48:57.843Z,2.40
2018-12-15T12:51:25.977Z,2.40
2018-12-15T12:53:54.090Z,2.40
2018-12-15T12:56:22.477Z,2.40
2018-12-15T12:58:50.668Z,2.50
2018-12-15T13:01:19.011Z,2.40
2018-12-15T13:03:47.530Z,2.40
2018-12-15T13:06:16.040Z,2.30
2018-12-15T13:08:45.618Z,2.20
2018-12-15T13:11:15.357Z,2.20
2018-12-15T13:13:43.618Z,2.20
2018-12-15T13:16:12.418Z,2.20
2018-12-15T13:18:40.810Z,2.20
2018-12-15T13:21:09.634Z,2.20
2018-12-15T13:23:38.341Z,2.20
2018-12-15T13:26:07.505Z,2.20
2018-12-15T13:28:35.965Z,2.20
2018-12-15T13:31:04.613Z,2.30
2018-12-15T13:33:35.617Z,2.30
2018-12-15T13:36:18.199Z,2.40
2018-12-15T13:38:46.711Z,2.40
2018-12-15T13:41:14.918Z,2.30
2018-12-15T13:43:43.203Z,2.30
2018-12-15T13:46:11.474Z,2.40
2018-12-15T13:48:39.548Z,2.30
2018-12-15T13:51:07.743Z,2.30
2018-12-15T13:53:35.901Z,2.20
2018-12-15T13:56:04.249Z,2.20
2018-12-15T13:58:32.350Z,2.30
2018-12-15T14:01:00.812Z,2.30
2018-12-15T14:03:28.921Z,2.30
2018-12-15T14:05:57.033Z,2.30
2018-12-15T14:08:25.397Z,2.20
2018-12-15T14:10:53.749Z,2.20
2018-12-15T14:13:21.862Z,2.20
2018-12-15T14:15:50.225Z,2.20
2018-12-15T14:18:18.289Z,2.30
2018-12-15T14:20:46.561Z,2.30
2018-12-15T14:23:14.755Z,2.30
2018-12-15T14:25:42.893Z,2.30
2018-12-15T14:28:11.042Z,2.20
2018-12-15T14:30:40.307Z,2.20
2018-12-15T14:33:08.566Z,2.20
2018-12-15T14:35:36.846Z,2.20
2018-12-15T14:38:05.770Z,2.20
2018-12-15T14:40:34.202Z,2.20
2018-12-15T14:43:03.217Z,2.20
2018-12-15T14:45:31.526Z,2.20
2018-12-15T14:48:00.438Z,2.20
2018-12-15T14:50:29.415Z,2.20
2018-12-15T14:52:57.582Z,2.20
2018-12-15T14:55:25.696Z,2.20
2018-12-15T14:57:53.989Z,2.20
2018-12-15T15:00:22.160Z,2.20
2018-12-15T15:02:50.357Z,2.20
2018-12-15T15:05:18.493Z,2.20
2018-12-15T15:07:47.090Z,2.10
2018-12-15T15:10:16.253Z,2.00
2018-12-15T15:12:44.479Z,2.00
2018-12-15T15:15:12.632Z,2.00
2018-12-15T15:17:40.853Z,1.90
2018-12-15T15:20:10.256Z,1.90
2018-12-15T15:22:38.913Z,1.90
2018-12-15T15:25:07.234Z,1.90
2018-12-15T15:27:35.354Z,1.90
2018-12-15T15:30:04.272Z,1.90
2018-12-15T15:32:32.382Z,1.90
2018-12-15T15:35:00.932Z,1.90
2018-12-15T15:37:29.057Z,1.90
2018-12-15T15:39:57.183Z,1.90
2018-12-15T15:42:25.340Z,2.00
2018-12-15T15:44:53.544Z,1.90
2018-12-15T15:47:21.865Z,1.90
2018-12-15T15:49:50.166Z,1.80
2018-12-15T15:52:18.288Z,1.80
2018-12-15T15:54:46.563Z,1.90
2018-12-15T15:57:14.663Z,1.80
2018-12-15T15:59:43.032Z,1.80
2018-12-15T16:02:11.145Z,1.80
2018-12-15T16:04:39.297Z,1.70
2018-12-15T16:07:07.378Z,1.70
2018-12-15T16:09:35.556Z,1.70
2018-12-15T16:12:03.664Z,1.70
2018-12-15T16:14:32.082Z,1.70
2018-12-15T16:17:00.198Z,1.70
2018-12-15T16:19:28.330Z,1.70
2018-12-15T16:21:56.713Z,1.70
2018-12-15T16:24:24.858Z,1.70
2018-12-15T16:26:52.962Z,1.70
2018-12-15T16:29:21.829Z,1.70
2018-12-15T16:31:50.614Z,1.70
2018-12-15T16:34:18.761Z,1.70
2018-12-15T16:36:47.176Z,1.70
2018-12-15T16:39:15.281Z,1.70
2018-12-15T16:41:43.438Z,1.70
2018-12-15T16:44:11.661Z,1.70
2018-12-15T16:46:39.772Z,1.80
2018-12-15T16:49:07.906Z,1.80
2018-12-15T16:51:36.111Z,1.80
2018-12-15T16:54:04.317Z,1.80
2018-12-15T16:56:32.468Z,1.80
2018-12-15T16:59:00.730Z,1.80
2018-12-15T17:01:28.849Z,1.70
2018-12-15T17:03:57.174Z,1.70
2018-12-15T17:06:25.510Z,1.70
2018-12-15T17:08:53.557Z,1.70
2018-12-15T17:11:22.394Z,1.80
2018-12-15T17:13:50.804Z,1.80
2018-12-15T17:16:19.173Z,1.80
2018-12-15T17:18:47.368Z,1.70
2018-12-15T17:21:15.741Z,1.60
2018-12-15T17:23:43.938Z,1.70
2018-12-15T17:26:12.101Z,1.70
2018-12-15T17:28:40.763Z,1.70
2018-12-15T17:31:08.934Z,1.70
2018-12-15T17:33:37.211Z,1.70
2018-12-15T17:36:05.801Z,1.70
2018-12-15T17:38:34.014Z,1.60
2018-12-15T17:41:02.356Z,1.60
2018-12-15T17:43:30.934Z,1.50
2018-12-15T17:45:59.499Z,1.50
2018-12-15T17:48:28.447Z,1.60
2018-12-15T17:51:03.109Z,1.50
2018-12-15T17:53:27.052Z,1.50
2018-12-15T17:55:55.540Z,1.40
2018-12-15T17:58:23.701Z,1.40
2018-12-15T18:00:52.102Z,1.40
2018-12-15T18:03:20.388Z,1.40
2018-12-15T18:05:48.689Z,1.40
2018-12-15T18:08:16.972Z,1.40
2018-12-15T18:10:45.264Z,1.40
2018-12-15T18:13:13.513Z,1.40
2018-12-15T18:15:41.632Z,1.40
2018-12-15T18:18:10.256Z,1.40
2018-12-15T18:20:38.453Z,1.40
2018-12-15T18:23:06.677Z,1.40
2018-12-15T18:25:34.944Z,1.40
2018-12-15T18:28:03.075Z,1.40
2018-12-15T18:30:31.201Z,1.40
2018-12-15T18:32:59.369Z,1.40
2018-12-15T18:35:27.517Z,1.40
2018-12-15T18:37:55.695Z,1.40
2018-12-15T18:40:24.155Z,1.50
2018-12-15T18:42:52.269Z,1.50
2018-12-15T18:45:20.388Z,1.40
2018-12-15T18:47:48.528Z,1.40
2018-12-15T18:50:16.637Z,1.50
2018-12-15T18:52:44.820Z,1.40
2018-12-15T18:55:13.209Z,1.40
2018-12-15T18:57:41.322Z,1.40
2018-12-15T19:00:13.419Z,1.50
2018-12-15T19:02:41.516Z,1.40
2018-12-15T19:05:09.613Z,1.50
2018-12-15T19:07:37.970Z,1.40
2018-12-15T19:10:06.484Z,1.40
2018-12-15T19:12:34.754Z,1.30
2018-12-15T19:15:03.804Z,1.30
2018-12-15T19:17:32.046Z,1.30
2018-12-15T19:20:00.398Z,1.20
2018-12-15T19:22:28.631Z,1.20
2018-12-15T19:24:56.913Z,1.20
2018-12-15T19:27:25.066Z,1.20
2018-12-15T19:29:53.172Z,1.20
2018-12-15T19:32:21.286Z,1.20
2018-12-15T19:34:52.363Z,1.20
2018-12-15T19:37:19.582Z,1.20
2018-12-15T19:39:47.809Z,1.20
2018-12-15T19:42:15.984Z,1.20
2018-12-15T19:44:45.002Z,1.20
2018-12-15T19:47:13.128Z,1.20
2018-12-15T19:49:41.272Z,1.20
2018-12-15T19:52:09.444Z,1.20
2018-12-15T19:54:37.593Z,1.30
2018-12-15T19:57:05.745Z,1.30
2018-12-15T19:59:34.225Z,1.30
2018-12-15T20:02:02.365Z,1.30
2018-12-15T20:04:30.495Z,1.30
2018-12-15T20:06:58.721Z,1.30
2018-12-15T20:09:26.814Z,1.30
2018-12-15T20:11:55.060Z,1.30
2018-12-15T20:14:23.101Z,1.30
2018-12-15T20:16:51.198Z,1.30
2018-12-15T20:19:19.343Z,1.30
2018-12-15T20:21:47.710Z,1.30
2018-12-15T20:24:15.912Z,1.20
2018-12-15T20:26:44.121Z,1.20
2018-12-15T20:29:12.409Z,1.20
2018-12-15T20:31:40.529Z,1.20
2018-12-15T20:34:08.619Z,1.30
2018-12-15T20:36:37.462Z,1.30
2018-12-15T20:39:06.975Z,1.30
2018-12-15T20:41:35.103Z,1.30
2018-12-15T20:44:03.202Z,1.20
2018-12-15T20:46:31.300Z,1.30
2018-12-15T20:48:59.480Z,1.30
2018-12-15T20:51:28.663Z,1.30
2018-12-15T20:53:56.855Z,1.20
2018-12-15T20:56:24.966Z,1.20
2018-12-15T20:58:53.028Z,1.20
2018-12-15T21:01:21.425Z,1.20
2018-12-15T21:03:49.819Z,1.20
2018-12-15T21:06:18.600Z,1.20
2018-12-15T21:08:47.096Z,1.20
2018-12-15T21:11:15.154Z,1.20
2018-12-15T21:13:43.481Z,1.20
2018-12-15T21:16:11.829Z,1.30
2018-12-15T21:18:40.312Z,1.20
2018-12-15T21:21:08.629Z,1.20
2018-12-15T21:23:37.396Z,1.20
2018-12-15T21:26:05.638Z,1.20
2018-12-15T21:28:33.781Z,1.10
2018-12-15T21:31:02.272Z,1.10
2018-12-15T21:33:30.509Z,1.20
2018-12-15T21:35:58.707Z,1.10
2018-12-15T21:38:26.864Z,1.20
2018-12-15T21:40:54.933Z,1.20
2018-12-15T21:43:23.070Z,1.20
2018-12-15T21:45:51.537Z,1.20
2018-12-15T21:48:19.666Z,1.20
2018-12-15T21:50:47.805Z,1.20
2018-12-15T21:53:16.342Z,1.20
2018-12-15T21:55:44.504Z,1.20
2018-12-15T21:58:12.624Z,1.20
2018-12-15T22:00:40.882Z,1.20
2018-12-15T22:03:09.015Z,1.20
2018-12-15T22:05:37.163Z,1.20
2018-12-15T22:08:05.298Z,1.20
2018-12-15T22:10:33.427Z,1.20
2018-12-15T22:13:01.591Z,1.20
2018-12-15T22:15:29.770Z,1.20
2018-12-15T22:17:57.837Z,1.20
2018-12-15T22:20:26.025Z,1.20
2018-12-15T22:22:54.270Z,1.20
2018-12-15T22:25:22.844Z,1.30
2018-12-15T22:27:51.030Z,1.30
2018-12-15T22:30:19.346Z,1.40
2018-12-15T22:32:47.509Z,1.40
2018-12-15T22:35:15.609Z,1.40
2018-12-15T22:37:43.829Z,1.30
2018-12-15T22:40:13.051Z,1.30
2018-12-15T22:42:41.370Z,1.30
2018-12-15T22:45:09.528Z,1.30
2018-12-15T22:47:37.587Z,1.30
2018-12-15T22:50:06.646Z,1.30
2018-12-15T22:52:34.845Z,1.30
2018-12-15T22:55:03.058Z,1.30
2018-12-15T22:57:31.228Z,1.30
2018-12-15T22:59:59.385Z,1.30
2018-12-15T23:02:28.398Z,1.40
2018-12-15T23:04:56.564Z,1.40
2018-12-15T23:07:24.813Z,1.30
2018-12-15T23:09:53.002Z,1.40
2018-12-15T23:12:21.152Z,1.30
2018-12-15T23:14:49.856Z,1.30
2018-12-15T23:17:17.973Z,1.30
2018-12-15T23:19:46.212Z,1.30
2018-12-15T23:22:16.466Z,1.30
2018-12-15T23:24:44.517Z,1.30
2018-12-15T23:27:12.989Z,1.30
2018-12-15T23:29:41.179Z,1.30
2018-12-15T23:32:09.375Z,1.30
2018-12-15T23:34:37.492Z,1.40
2018-12-15T23:37:05.641Z,1.40
2018-12-15T23:39:33.842Z,1.30
2018-12-15T23:42:02.008Z,1.40
2018-12-15T23:44:30.133Z,1.40
2018-12-15T23:46:58.306Z,1.40
2018-12-15T23:49:26.915Z,1.40
2018-12-15T23:51:55.230Z,1.40
2018-12-15T23:54:23.664Z,1.40
2018-12-15T23:56:52.049Z,1.50
2018-12-15T23:59:20.393Z,1.40
